sensor_id;sensor_type;location;lat;lon;timestamp;P1;durP1;ratioP1;P2;durP2;ratioP2
12435;SDS011;6282;51.440;6.938;2023-04-03T00:01:24;6.33;;;4.73;;
12435;SDS011;6282;51.440;6.938;2023-04-03T00:03:51;9.13;;;4.40;;
12435;SDS011;6282;51.440;6.938;2023-04-03T00:06:18;6.47;;;4.93;;
12435;SDS011;6282;51.440;6.938;2023-04-03T00:08:44;8.87;;;5.57;;
12435;SDS011;6282;51.440;6.938;2023-04-03T00:11:13;6.87;;;4.90;;
12435;SDS011;6282;51.440;6.938;2023-04-03T00:13:40;8.33;;;5.17;;
12435;SDS011;6282;51.440;6.938;2023-04-03T00:16:07;8.43;;;5.03;;
12435;SDS011;6282;51.440;6.938;2023-04-03T00:18:35;5.80;;;4.80;;
12435;SDS011;6282;51.440;6.938;2023-04-03T00:21:02;6.57;;;5.17;;
12435;SDS011;6282;51.440;6.938;2023-04-03T00:23:30;8.10;;;5.07;;
12435;SDS011;6282;51.440;6.938;2023-04-03T00:25:57;6.67;;;4.67;;
12435;SDS011;6282;51.440;6.938;2023-04-03T00:28:25;7.13;;;5.50;;
12435;SDS011;6282;51.440;6.938;2023-04-03T00:30:52;6.90;;;5.00;;
12435;SDS011;6282;51.440;6.938;2023-04-03T00:33:19;7.07;;;5.13;;
12435;SDS011;6282;51.440;6.938;2023-04-03T00:35:46;7.60;;;5.40;;
12435;SDS011;6282;51.440;6.938;2023-04-03T00:38:14;7.90;;;5.50;;
12435;SDS011;6282;51.440;6.938;2023-04-03T00:40:42;7.07;;;5.20;;
12435;SDS011;6282;51.440;6.938;2023-04-03T00:43:11;5.97;;;5.37;;
12435;SDS011;6282;51.440;6.938;2023-04-03T00:45:42;6.47;;;5.43;;
12435;SDS011;6282;51.440;6.938;2023-04-03T00:48:11;6.17;;;5.17;;
12435;SDS011;6282;51.440;6.938;2023-04-03T00:50:42;7.77;;;4.83;;
12435;SDS011;6282;51.440;6.938;2023-04-03T00:53:11;10.77;;;5.90;;
12435;SDS011;6282;51.440;6.938;2023-04-03T00:55:40;10.30;;;5.50;;
12435;SDS011;6282;51.440;6.938;2023-04-03T00:58:08;5.77;;;5.00;;
12435;SDS011;6282;51.440;6.938;2023-04-03T01:00:36;7.30;;;5.20;;
12435;SDS011;6282;51.440;6.938;2023-04-03T01:03:07;7.13;;;5.40;;
12435;SDS011;6282;51.440;6.938;2023-04-03T01:05:34;8.37;;;5.60;;
12435;SDS011;6282;51.440;6.938;2023-04-03T01:08:01;8.00;;;5.20;;
12435;SDS011;6282;51.440;6.938;2023-04-03T01:10:28;6.43;;;5.77;;
12435;SDS011;6282;51.440;6.938;2023-04-03T01:12:55;5.90;;;5.13;;
12435;SDS011;6282;51.440;6.938;2023-04-03T01:15:23;8.43;;;5.67;;
12435;SDS011;6282;51.440;6.938;2023-04-03T01:17:52;7.73;;;5.73;;
12435;SDS011;6282;51.440;6.938;2023-04-03T01:20:36;8.60;;;6.23;;
12435;SDS011;6282;51.440;6.938;2023-04-03T01:23:44;8.67;;;5.77;;
12435;SDS011;6282;51.440;6.938;2023-04-03T01:26:22;9.70;;;5.97;;
12435;SDS011;6282;51.440;6.938;2023-04-03T01:28:50;8.67;;;6.03;;
12435;SDS011;6282;51.440;6.938;2023-04-03T01:31:21;8.73;;;6.07;;
12435;SDS011;6282;51.440;6.938;2023-04-03T01:33:52;7.97;;;6.27;;
12435;SDS011;6282;51.440;6.938;2023-04-03T01:36:20;11.53;;;6.80;;
12435;SDS011;6282;51.440;6.938;2023-04-03T01:38:49;9.23;;;6.00;;
12435;SDS011;6282;51.440;6.938;2023-04-03T01:41:16;7.83;;;6.23;;
12435;SDS011;6282;51.440;6.938;2023-04-03T01:43:43;12.37;;;6.87;;
12435;SDS011;6282;51.440;6.938;2023-04-03T01:46:10;11.03;;;7.03;;
12435;SDS011;6282;51.440;6.938;2023-04-03T01:48:37;10.90;;;7.20;;
12435;SDS011;6282;51.440;6.938;2023-04-03T01:51:05;11.93;;;7.30;;
12435;SDS011;6282;51.440;6.938;2023-04-03T01:53:32;10.40;;;6.87;;
12435;SDS011;6282;51.440;6.938;2023-04-03T01:55:59;12.37;;;7.37;;
12435;SDS011;6282;51.440;6.938;2023-04-03T01:58:26;9.40;;;6.83;;
12435;SDS011;6282;51.440;6.938;2023-04-03T02:00:52;9.63;;;6.50;;
12435;SDS011;6282;51.440;6.938;2023-04-03T02:03:20;8.90;;;6.20;;
12435;SDS011;6282;51.440;6.938;2023-04-03T02:05:46;9.17;;;6.47;;
12435;SDS011;6282;51.440;6.938;2023-04-03T02:08:15;7.00;;;5.13;;
12435;SDS011;6282;51.440;6.938;2023-04-03T02:10:43;7.00;;;5.73;;
12435;SDS011;6282;51.440;6.938;2023-04-03T02:13:10;7.70;;;5.63;;
12435;SDS011;6282;51.440;6.938;2023-04-03T02:15:37;8.40;;;5.50;;
12435;SDS011;6282;51.440;6.938;2023-04-03T02:18:05;9.20;;;5.90;;
12435;SDS011;6282;51.440;6.938;2023-04-03T02:20:32;7.07;;;5.40;;
12435;SDS011;6282;51.440;6.938;2023-04-03T02:22:59;6.13;;;4.90;;
12435;SDS011;6282;51.440;6.938;2023-04-03T02:27:57;6.00;;;4.90;;
12435;SDS011;6282;51.440;6.938;2023-04-03T02:30:24;6.37;;;4.97;;
12435;SDS011;6282;51.440;6.938;2023-04-03T02:32:51;6.60;;;4.60;;
12435;SDS011;6282;51.440;6.938;2023-04-03T02:35:18;8.10;;;4.83;;
12435;SDS011;6282;51.440;6.938;2023-04-03T02:37:45;6.87;;;4.90;;
12435;SDS011;6282;51.440;6.938;2023-04-03T02:40:12;6.43;;;4.10;;
12435;SDS011;6282;51.440;6.938;2023-04-03T02:42:39;8.97;;;5.00;;
12435;SDS011;6282;51.440;6.938;2023-04-03T02:45:08;5.53;;;4.43;;
12435;SDS011;6282;51.440;6.938;2023-04-03T02:47:35;5.80;;;4.10;;
12435;SDS011;6282;51.440;6.938;2023-04-03T02:50:03;6.30;;;4.20;;
12435;SDS011;6282;51.440;6.938;2023-04-03T02:52:31;5.97;;;4.43;;
12435;SDS011;6282;51.440;6.938;2023-04-03T02:54:57;6.10;;;4.23;;
12435;SDS011;6282;51.440;6.938;2023-04-03T02:57:24;8.07;;;4.43;;
12435;SDS011;6282;51.440;6.938;2023-04-03T02:59:51;4.33;;;3.77;;
12435;SDS011;6282;51.440;6.938;2023-04-03T03:02:19;5.93;;;3.70;;
12435;SDS011;6282;51.440;6.938;2023-04-03T03:04:46;5.47;;;3.40;;
12435;SDS011;6282;51.440;6.938;2023-04-03T03:07:13;6.93;;;3.27;;
12435;SDS011;6282;51.440;6.938;2023-04-03T03:09:40;7.73;;;3.00;;
12435;SDS011;6282;51.440;6.938;2023-04-03T03:12:07;4.17;;;2.60;;
12435;SDS011;6282;51.440;6.938;2023-04-03T03:14:34;4.27;;;2.80;;
12435;SDS011;6282;51.440;6.938;2023-04-03T03:17:00;6.57;;;2.93;;
12435;SDS011;6282;51.440;6.938;2023-04-03T03:19:28;4.90;;;2.90;;
12435;SDS011;6282;51.440;6.938;2023-04-03T03:21:55;7.20;;;2.80;;
12435;SDS011;6282;51.440;6.938;2023-04-03T03:24:22;5.40;;;2.20;;
12435;SDS011;6282;51.440;6.938;2023-04-03T03:26:49;5.90;;;2.77;;
12435;SDS011;6282;51.440;6.938;2023-04-03T03:29:16;6.63;;;3.13;;
12435;SDS011;6282;51.440;6.938;2023-04-03T03:31:43;4.17;;;2.70;;
12435;SDS011;6282;51.440;6.938;2023-04-03T03:34:10;4.93;;;2.70;;
12435;SDS011;6282;51.440;6.938;2023-04-03T03:36:38;3.93;;;2.20;;
12435;SDS011;6282;51.440;6.938;2023-04-03T03:39:05;4.03;;;2.30;;
12435;SDS011;6282;51.440;6.938;2023-04-03T03:41:32;4.23;;;2.03;;
12435;SDS011;6282;51.440;6.938;2023-04-03T03:43:59;2.33;;;1.60;;
12435;SDS011;6282;51.440;6.938;2023-04-03T03:46:26;4.70;;;2.23;;
12435;SDS011;6282;51.440;6.938;2023-04-03T03:48:53;2.97;;;1.80;;
12435;SDS011;6282;51.440;6.938;2023-04-03T03:51:20;2.57;;;1.63;;
12435;SDS011;6282;51.440;6.938;2023-04-03T03:53:48;5.27;;;2.03;;
12435;SDS011;6282;51.440;6.938;2023-04-03T03:56:15;4.70;;;2.03;;
12435;SDS011;6282;51.440;6.938;2023-04-03T03:58:41;5.27;;;2.10;;
12435;SDS011;6282;51.440;6.938;2023-04-03T04:01:08;6.20;;;1.97;;
12435;SDS011;6282;51.440;6.938;2023-04-03T04:03:35;4.20;;;2.00;;
12435;SDS011;6282;51.440;6.938;2023-04-03T04:06:02;2.90;;;1.63;;
12435;SDS011;6282;51.440;6.938;2023-04-03T04:08:29;2.33;;;1.50;;
12435;SDS011;6282;51.440;6.938;2023-04-03T04:10:57;2.50;;;1.53;;
12435;SDS011;6282;51.440;6.938;2023-04-03T04:13:24;2.00;;;1.53;;
12435;SDS011;6282;51.440;6.938;2023-04-03T04:15:51;5.23;;;2.03;;
12435;SDS011;6282;51.440;6.938;2023-04-03T04:18:18;3.43;;;1.80;;
12435;SDS011;6282;51.440;6.938;2023-04-03T04:20:46;2.73;;;1.50;;
12435;SDS011;6282;51.440;6.938;2023-04-03T04:23:13;5.50;;;1.60;;
12435;SDS011;6282;51.440;6.938;2023-04-03T04:25:40;2.53;;;1.63;;
12435;SDS011;6282;51.440;6.938;2023-04-03T04:28:08;7.47;;;1.83;;
12435;SDS011;6282;51.440;6.938;2023-04-03T04:30:34;5.87;;;1.50;;
12435;SDS011;6282;51.440;6.938;2023-04-03T04:33:01;3.50;;;1.80;;
12435;SDS011;6282;51.440;6.938;2023-04-03T04:35:28;3.13;;;2.10;;
12435;SDS011;6282;51.440;6.938;2023-04-03T04:37:55;7.27;;;1.80;;
12435;SDS011;6282;51.440;6.938;2023-04-03T04:40:22;4.00;;;1.70;;
12435;SDS011;6282;51.440;6.938;2023-04-03T04:42:49;4.67;;;1.63;;
12435;SDS011;6282;51.440;6.938;2023-04-03T04:45:17;2.80;;;1.67;;
12435;SDS011;6282;51.440;6.938;2023-04-03T04:47:44;3.50;;;1.50;;
12435;SDS011;6282;51.440;6.938;2023-04-03T04:50:11;3.80;;;1.80;;
12435;SDS011;6282;51.440;6.938;2023-04-03T04:52:38;6.47;;;2.30;;
12435;SDS011;6282;51.440;6.938;2023-04-03T04:55:06;5.10;;;2.00;;
12435;SDS011;6282;51.440;6.938;2023-04-03T04:57:33;6.63;;;2.10;;
12435;SDS011;6282;51.440;6.938;2023-04-03T05:00:00;4.33;;;2.23;;
12435;SDS011;6282;51.440;6.938;2023-04-03T05:02:29;4.97;;;1.97;;
12435;SDS011;6282;51.440;6.938;2023-04-03T05:04:56;3.40;;;1.80;;
12435;SDS011;6282;51.440;6.938;2023-04-03T05:07:23;3.87;;;1.53;;
12435;SDS011;6282;51.440;6.938;2023-04-03T05:09:49;4.23;;;1.80;;
12435;SDS011;6282;51.440;6.938;2023-04-03T05:12:16;3.87;;;1.90;;
12435;SDS011;6282;51.440;6.938;2023-04-03T05:14:43;2.73;;;1.80;;
12435;SDS011;6282;51.440;6.938;2023-04-03T05:17:10;6.57;;;1.90;;
12435;SDS011;6282;51.440;6.938;2023-04-03T05:19:38;5.53;;;2.10;;
12435;SDS011;6282;51.440;6.938;2023-04-03T05:22:05;2.97;;;1.53;;
12435;SDS011;6282;51.440;6.938;2023-04-03T05:24:32;2.20;;;1.57;;
12435;SDS011;6282;51.440;6.938;2023-04-03T05:26:59;2.70;;;1.90;;
12435;SDS011;6282;51.440;6.938;2023-04-03T05:29:26;4.57;;;1.77;;
12435;SDS011;6282;51.440;6.938;2023-04-03T05:31:52;4.10;;;1.80;;
12435;SDS011;6282;51.440;6.938;2023-04-03T05:34:19;4.67;;;1.73;;
12435;SDS011;6282;51.440;6.938;2023-04-03T05:36:47;4.80;;;2.47;;
12435;SDS011;6282;51.440;6.938;2023-04-03T05:39:15;3.60;;;1.80;;
12435;SDS011;6282;51.440;6.938;2023-04-03T05:41:42;3.77;;;1.70;;
12435;SDS011;6282;51.440;6.938;2023-04-03T05:44:08;5.00;;;2.07;;
12435;SDS011;6282;51.440;6.938;2023-04-03T05:46:35;5.40;;;2.03;;
12435;SDS011;6282;51.440;6.938;2023-04-03T05:49:02;4.07;;;2.10;;
12435;SDS011;6282;51.440;6.938;2023-04-03T05:51:30;6.57;;;2.00;;
12435;SDS011;6282;51.440;6.938;2023-04-03T05:54:03;4.80;;;2.70;;
12435;SDS011;6282;51.440;6.938;2023-04-03T05:56:35;4.97;;;2.57;;
12435;SDS011;6282;51.440;6.938;2023-04-03T05:59:02;5.53;;;2.70;;
12435;SDS011;6282;51.440;6.938;2023-04-03T06:01:29;4.73;;;2.50;;
12435;SDS011;6282;51.440;6.938;2023-04-03T06:03:56;4.90;;;2.50;;
12435;SDS011;6282;51.440;6.938;2023-04-03T06:06:23;5.60;;;2.33;;
12435;SDS011;6282;51.440;6.938;2023-04-03T06:08:50;4.30;;;2.07;;
12435;SDS011;6282;51.440;6.938;2023-04-03T06:11:18;3.93;;;2.10;;
12435;SDS011;6282;51.440;6.938;2023-04-03T06:13:46;3.57;;;2.10;;
12435;SDS011;6282;51.440;6.938;2023-04-03T06:16:13;6.23;;;1.80;;
12435;SDS011;6282;51.440;6.938;2023-04-03T06:18:43;6.77;;;2.00;;
12435;SDS011;6282;51.440;6.938;2023-04-03T06:21:10;2.57;;;1.47;;
12435;SDS011;6282;51.440;6.938;2023-04-03T06:23:37;5.83;;;1.70;;
12435;SDS011;6282;51.440;6.938;2023-04-03T06:26:03;9.83;;;2.47;;
12435;SDS011;6282;51.440;6.938;2023-04-03T06:28:32;4.63;;;2.33;;
12435;SDS011;6282;51.440;6.938;2023-04-03T06:30:58;5.20;;;2.63;;
12435;SDS011;6282;51.440;6.938;2023-04-03T06:33:25;3.43;;;2.10;;
12435;SDS011;6282;51.440;6.938;2023-04-03T06:35:55;7.83;;;2.30;;
12435;SDS011;6282;51.440;6.938;2023-04-03T06:38:23;4.60;;;2.00;;
12435;SDS011;6282;51.440;6.938;2023-04-03T06:40:50;4.97;;;1.90;;
12435;SDS011;6282;51.440;6.938;2023-04-03T06:43:18;3.73;;;1.70;;
12435;SDS011;6282;51.440;6.938;2023-04-03T06:45:47;5.23;;;2.40;;
12435;SDS011;6282;51.440;6.938;2023-04-03T06:48:14;3.63;;;2.00;;
12435;SDS011;6282;51.440;6.938;2023-04-03T06:50:40;4.90;;;1.90;;
12435;SDS011;6282;51.440;6.938;2023-04-03T06:53:08;4.70;;;1.97;;
12435;SDS011;6282;51.440;6.938;2023-04-03T06:55:35;4.83;;;2.27;;
12435;SDS011;6282;51.440;6.938;2023-04-03T06:58:02;2.97;;;1.43;;
12435;SDS011;6282;51.440;6.938;2023-04-03T07:00:29;2.80;;;1.67;;
12435;SDS011;6282;51.440;6.938;2023-04-03T07:02:58;5.13;;;2.00;;
12435;SDS011;6282;51.440;6.938;2023-04-03T07:05:25;3.42;;;1.70;;
12435;SDS011;6282;51.440;6.938;2023-04-03T07:07:52;3.30;;;1.90;;
12435;SDS011;6282;51.440;6.938;2023-04-03T07:10:19;3.55;;;2.10;;
12435;SDS011;6282;51.440;6.938;2023-04-03T07:12:46;4.22;;;2.20;;
12435;SDS011;6282;51.440;6.938;2023-04-03T07:15:13;4.95;;;2.00;;
12435;SDS011;6282;51.440;6.938;2023-04-03T07:17:40;3.95;;;2.17;;
12435;SDS011;6282;51.440;6.938;2023-04-03T07:20:09;4.93;;;2.17;;
12435;SDS011;6282;51.440;6.938;2023-04-03T07:22:36;4.30;;;2.00;;
12435;SDS011;6282;51.440;6.938;2023-04-03T07:25:03;2.88;;;1.50;;
12435;SDS011;6282;51.440;6.938;2023-04-03T07:27:32;3.45;;;1.88;;
12435;SDS011;6282;51.440;6.938;2023-04-03T07:29:59;5.70;;;1.77;;
12435;SDS011;6282;51.440;6.938;2023-04-03T07:32:26;4.20;;;1.90;;
12435;SDS011;6282;51.440;6.938;2023-04-03T07:34:52;2.70;;;1.58;;
12435;SDS011;6282;51.440;6.938;2023-04-03T07:37:21;3.35;;;1.80;;
12435;SDS011;6282;51.440;6.938;2023-04-03T07:39:48;6.07;;;2.15;;
12435;SDS011;6282;51.440;6.938;2023-04-03T07:42:15;2.50;;;1.58;;
12435;SDS011;6282;51.440;6.938;2023-04-03T07:44:42;4.93;;;1.75;;
12435;SDS011;6282;51.440;6.938;2023-04-03T07:47:09;2.45;;;1.63;;
12435;SDS011;6282;51.440;6.938;2023-04-03T07:49:36;4.72;;;1.85;;
12435;SDS011;6282;51.440;6.938;2023-04-03T07:52:05;5.40;;;2.08;;
12435;SDS011;6282;51.440;6.938;2023-04-03T07:54:35;3.53;;;1.83;;
12435;SDS011;6282;51.440;6.938;2023-04-03T07:57:02;2.78;;;1.50;;
12435;SDS011;6282;51.440;6.938;2023-04-03T07:59:30;2.28;;;1.40;;
12435;SDS011;6282;51.440;6.938;2023-04-03T08:01:57;2.03;;;1.60;;
12435;SDS011;6282;51.440;6.938;2023-04-03T08:04:24;3.13;;;1.60;;
12435;SDS011;6282;51.440;6.938;2023-04-03T08:06:51;2.13;;;1.35;;
12435;SDS011;6282;51.440;6.938;2023-04-03T08:09:18;2.35;;;1.50;;
12435;SDS011;6282;51.440;6.938;2023-04-03T08:11:46;5.75;;;1.45;;
12435;SDS011;6282;51.440;6.938;2023-04-03T08:14:16;3.72;;;1.55;;
12435;SDS011;6282;51.440;6.938;2023-04-03T08:16:43;3.72;;;1.60;;
12435;SDS011;6282;51.440;6.938;2023-04-03T08:19:11;3.30;;;1.35;;
12435;SDS011;6282;51.440;6.938;2023-04-03T08:21:40;2.17;;;1.33;;
12435;SDS011;6282;51.440;6.938;2023-04-03T08:24:07;3.50;;;1.40;;
12435;SDS011;6282;51.440;6.938;2023-04-03T08:26:35;3.08;;;1.60;;
12435;SDS011;6282;51.440;6.938;2023-04-03T08:29:03;2.40;;;1.20;;
12435;SDS011;6282;51.440;6.938;2023-04-03T08:31:30;2.03;;;1.25;;
12435;SDS011;6282;51.440;6.938;2023-04-03T08:33:57;1.85;;;1.27;;
12435;SDS011;6282;51.440;6.938;2023-04-03T08:36:24;2.42;;;1.50;;
12435;SDS011;6282;51.440;6.938;2023-04-03T08:38:53;3.22;;;1.15;;
12435;SDS011;6282;51.440;6.938;2023-04-03T08:41:26;3.03;;;1.45;;
12435;SDS011;6282;51.440;6.938;2023-04-03T08:44:00;1.20;;;1.10;;
12435;SDS011;6282;51.440;6.938;2023-04-03T08:46:40;2.03;;;1.17;;
12435;SDS011;6282;51.440;6.938;2023-04-03T08:49:21;3.45;;;1.20;;
12435;SDS011;6282;51.440;6.938;2023-04-03T08:51:52;2.15;;;1.20;;
12435;SDS011;6282;51.440;6.938;2023-04-03T08:54:23;3.75;;;1.13;;
12435;SDS011;6282;51.440;6.938;2023-04-03T08:56:54;2.22;;;1.10;;
12435;SDS011;6282;51.440;6.938;2023-04-03T08:59:25;1.60;;;1.23;;
12435;SDS011;6282;51.440;6.938;2023-04-03T09:01:56;1.52;;;1.17;;
12435;SDS011;6282;51.440;6.938;2023-04-03T09:04:27;2.47;;;1.05;;
12435;SDS011;6282;51.440;6.938;2023-04-03T09:06:58;1.17;;;1.00;;
12435;SDS011;6282;51.440;6.938;2023-04-03T09:09:35;1.42;;;1.15;;
12435;SDS011;6282;51.440;6.938;2023-04-03T09:12:09;1.23;;;1.00;;
12435;SDS011;6282;51.440;6.938;2023-04-03T09:14:45;3.70;;;1.30;;
12435;SDS011;6282;51.440;6.938;2023-04-03T09:17:21;2.17;;;0.88;;
12435;SDS011;6282;51.440;6.938;2023-04-03T09:19:58;4.63;;;1.40;;
12435;SDS011;6282;51.440;6.938;2023-04-03T09:22:34;1.42;;;1.10;;
12435;SDS011;6282;51.440;6.938;2023-04-03T09:25:05;1.85;;;1.20;;
12435;SDS011;6282;51.440;6.938;2023-04-03T09:27:39;3.83;;;1.25;;
12435;SDS011;6282;51.440;6.938;2023-04-03T09:30:11;2.53;;;1.23;;
12435;SDS011;6282;51.440;6.938;2023-04-03T09:32:40;2.28;;;0.90;;
12435;SDS011;6282;51.440;6.938;2023-04-03T09:35:13;2.40;;;1.00;;
12435;SDS011;6282;51.440;6.938;2023-04-03T09:37:45;1.90;;;1.10;;
12435;SDS011;6282;51.440;6.938;2023-04-03T09:40:30;1.98;;;1.00;;
12435;SDS011;6282;51.440;6.938;2023-04-03T09:45:49;1.70;;;0.90;;
12435;SDS011;6282;51.440;6.938;2023-04-03T09:48:17;0.90;;;0.80;;
12435;SDS011;6282;51.440;6.938;2023-04-03T09:50:53;0.93;;;0.70;;
12435;SDS011;6282;51.440;6.938;2023-04-03T09:53:31;3.08;;;1.00;;
12435;SDS011;6282;51.440;6.938;2023-04-03T09:56:00;1.70;;;1.00;;
12435;SDS011;6282;51.440;6.938;2023-04-03T09:58:30;1.10;;;0.93;;
12435;SDS011;6282;51.440;6.938;2023-04-03T10:01:01;0.77;;;0.77;;
12435;SDS011;6282;51.440;6.938;2023-04-03T10:03:29;0.52;;;0.50;;
12435;SDS011;6282;51.440;6.938;2023-04-03T10:05:59;1.67;;;0.75;;
12435;SDS011;6282;51.440;6.938;2023-04-03T10:08:28;1.38;;;0.90;;
12435;SDS011;6282;51.440;6.938;2023-04-03T10:11:07;1.77;;;0.80;;
12435;SDS011;6282;51.440;6.938;2023-04-03T10:13:36;1.70;;;0.88;;
12435;SDS011;6282;51.440;6.938;2023-04-03T10:16:17;3.87;;;0.83;;
12435;SDS011;6282;51.440;6.938;2023-04-03T10:18:49;1.57;;;0.90;;
12435;SDS011;6282;51.440;6.938;2023-04-03T10:21:27;2.88;;;0.90;;
12435;SDS011;6282;51.440;6.938;2023-04-03T10:24:04;0.70;;;0.70;;
12435;SDS011;6282;51.440;6.938;2023-04-03T10:26:38;0.97;;;0.87;;
12435;SDS011;6282;51.440;6.938;2023-04-03T10:29:13;4.25;;;0.88;;
12435;SDS011;6282;51.440;6.938;2023-04-03T10:31:53;1.40;;;0.90;;
12435;SDS011;6282;51.440;6.938;2023-04-03T10:34:30;0.90;;;0.80;;
12435;SDS011;6282;51.440;6.938;2023-04-03T10:37:01;1.37;;;0.87;;
12435;SDS011;6282;51.440;6.938;2023-04-03T10:39:39;1.00;;;0.90;;
12435;SDS011;6282;51.440;6.938;2023-04-03T10:42:15;1.10;;;1.00;;
12435;SDS011;6282;51.440;6.938;2023-04-03T10:44:52;1.60;;;1.03;;
12435;SDS011;6282;51.440;6.938;2023-04-03T10:47:36;2.47;;;1.03;;
12435;SDS011;6282;51.440;6.938;2023-04-03T10:50:12;2.70;;;1.30;;
12435;SDS011;6282;51.440;6.938;2023-04-03T10:52:53;1.17;;;0.83;;
12435;SDS011;6282;51.440;6.938;2023-04-03T10:55:30;2.43;;;0.77;;
12435;SDS011;6282;51.440;6.938;2023-04-03T10:58:02;2.10;;;0.98;;
12435;SDS011;6282;51.440;6.938;2023-04-03T11:00:33;2.70;;;1.10;;
12435;SDS011;6282;51.440;6.938;2023-04-03T11:03:05;1.83;;;0.90;;
12435;SDS011;6282;51.440;6.938;2023-04-03T11:05:39;1.60;;;1.20;;
12435;SDS011;6282;51.440;6.938;2023-04-03T11:08:11;2.47;;;0.90;;
12435;SDS011;6282;51.440;6.938;2023-04-03T11:10:53;1.05;;;0.90;;
12435;SDS011;6282;51.440;6.938;2023-04-03T11:13:24;1.90;;;0.93;;
12435;SDS011;6282;51.440;6.938;2023-04-03T11:15:56;1.30;;;1.00;;
12435;SDS011;6282;51.440;6.938;2023-04-03T11:18:27;2.13;;;1.00;;
12435;SDS011;6282;51.440;6.938;2023-04-03T11:20:59;1.65;;;1.15;;
12435;SDS011;6282;51.440;6.938;2023-04-03T11:23:30;1.80;;;0.80;;
12435;SDS011;6282;51.440;6.938;2023-04-03T11:26:07;1.47;;;0.70;;
12435;SDS011;6282;51.440;6.938;2023-04-03T11:28:36;2.30;;;1.20;;
12435;SDS011;6282;51.440;6.938;2023-04-03T11:31:07;2.30;;;1.13;;
12435;SDS011;6282;51.440;6.938;2023-04-03T11:33:45;1.42;;;0.90;;
12435;SDS011;6282;51.440;6.938;2023-04-03T11:36:21;2.97;;;1.10;;
12435;SDS011;6282;51.440;6.938;2023-04-03T11:38:51;1.20;;;1.10;;
12435;SDS011;6282;51.440;6.938;2023-04-03T11:41:24;2.50;;;1.00;;
12435;SDS011;6282;51.440;6.938;2023-04-03T11:43:56;1.63;;;0.90;;
12435;SDS011;6282;51.440;6.938;2023-04-03T11:55:44;0.93;;;0.80;;
12435;SDS011;6282;51.440;6.938;2023-04-03T11:58:22;1.00;;;0.90;;
12435;SDS011;6282;51.440;6.938;2023-04-03T12:00:51;1.97;;;1.07;;
12435;SDS011;6282;51.440;6.938;2023-04-03T12:12:58;1.47;;;1.00;;
12435;SDS011;6282;51.440;6.938;2023-04-03T12:18:32;4.70;;;1.05;;
12435;SDS011;6282;51.440;6.938;2023-04-03T12:21:07;1.60;;;1.10;;
12435;SDS011;6282;51.440;6.938;2023-04-03T12:23:35;2.80;;;1.08;;
12435;SDS011;6282;51.440;6.938;2023-04-03T12:26:22;1.50;;;0.90;;
12435;SDS011;6282;51.440;6.938;2023-04-03T12:28:53;0.90;;;0.80;;
12435;SDS011;6282;51.440;6.938;2023-04-03T12:31:22;0.88;;;0.85;;
12435;SDS011;6282;51.440;6.938;2023-04-03T12:33:57;1.40;;;1.00;;
12435;SDS011;6282;51.440;6.938;2023-04-03T12:36:47;1.57;;;0.90;;
12435;SDS011;6282;51.440;6.938;2023-04-03T12:39:33;1.70;;;0.95;;
12435;SDS011;6282;51.440;6.938;2023-04-03T12:42:12;1.23;;;0.90;;
12435;SDS011;6282;51.440;6.938;2023-04-03T12:44:55;1.25;;;0.80;;
12435;SDS011;6282;51.440;6.938;2023-04-03T12:47:28;1.23;;;0.80;;
12435;SDS011;6282;51.440;6.938;2023-04-03T12:50:01;3.00;;;0.98;;
12435;SDS011;6282;51.440;6.938;2023-04-03T12:52:33;2.35;;;0.90;;
12435;SDS011;6282;51.440;6.938;2023-04-03T12:55:07;2.33;;;1.20;;
12435;SDS011;6282;51.440;6.938;2023-04-03T12:57:40;2.90;;;1.00;;
12435;SDS011;6282;51.440;6.938;2023-04-03T13:00:25;3.40;;;1.00;;
12435;SDS011;6282;51.440;6.938;2023-04-03T13:02:58;2.03;;;1.00;;
12435;SDS011;6282;51.440;6.938;2023-04-03T13:05:26;1.55;;;0.90;;
12435;SDS011;6282;51.440;6.938;2023-04-03T13:07:55;1.08;;;1.00;;
12435;SDS011;6282;51.440;6.938;2023-04-03T13:10:26;1.73;;;0.80;;
12435;SDS011;6282;51.440;6.938;2023-04-03T13:12:54;1.35;;;0.95;;
12435;SDS011;6282;51.440;6.938;2023-04-03T13:15:25;2.97;;;0.98;;
12435;SDS011;6282;51.440;6.938;2023-04-03T13:17:56;1.50;;;1.05;;
12435;SDS011;6282;51.440;6.938;2023-04-03T13:20:24;1.00;;;0.65;;
12435;SDS011;6282;51.440;6.938;2023-04-03T13:22:54;0.90;;;0.82;;
12435;SDS011;6282;51.440;6.938;2023-04-03T13:25:24;3.95;;;0.73;;
12435;SDS011;6282;51.440;6.938;2023-04-03T13:27:54;3.10;;;1.20;;
12435;SDS011;6282;51.440;6.938;2023-04-03T13:30:25;1.65;;;1.00;;
12435;SDS011;6282;51.440;6.938;2023-04-03T13:32:55;2.95;;;1.10;;
12435;SDS011;6282;51.440;6.938;2023-04-03T13:35:27;2.20;;;0.95;;
12435;SDS011;6282;51.440;6.938;2023-04-03T13:38:03;3.20;;;0.93;;
12435;SDS011;6282;51.440;6.938;2023-04-03T13:40:32;1.25;;;0.90;;
12435;SDS011;6282;51.440;6.938;2023-04-03T13:43:04;3.03;;;0.90;;
12435;SDS011;6282;51.440;6.938;2023-04-03T13:45:53;1.35;;;0.70;;
12435;SDS011;6282;51.440;6.938;2023-04-03T13:48:22;1.40;;;0.70;;
12435;SDS011;6282;51.440;6.938;2023-04-03T13:50:50;1.73;;;0.70;;
12435;SDS011;6282;51.440;6.938;2023-04-03T13:53:19;2.35;;;0.75;;
12435;SDS011;6282;51.440;6.938;2023-04-03T13:55:54;1.23;;;0.90;;
12435;SDS011;6282;51.440;6.938;2023-04-03T13:58:24;1.63;;;0.90;;
12435;SDS011;6282;51.440;6.938;2023-04-03T14:00:54;2.90;;;1.45;;
12435;SDS011;6282;51.440;6.938;2023-04-03T14:03:26;2.17;;;0.80;;
12435;SDS011;6282;51.440;6.938;2023-04-03T14:05:56;1.05;;;0.80;;
12435;SDS011;6282;51.440;6.938;2023-04-03T14:08:23;1.00;;;0.90;;
12435;SDS011;6282;51.440;6.938;2023-04-03T14:10:50;0.90;;;0.68;;
12435;SDS011;6282;51.440;6.938;2023-04-03T14:13:17;1.88;;;0.90;;
12435;SDS011;6282;51.440;6.938;2023-04-03T14:15:46;2.05;;;0.90;;
12435;SDS011;6282;51.440;6.938;2023-04-03T14:18:16;1.63;;;0.75;;
12435;SDS011;6282;51.440;6.938;2023-04-03T14:20:45;1.42;;;0.90;;
12435;SDS011;6282;51.440;6.938;2023-04-03T14:23:13;4.35;;;1.20;;
12435;SDS011;6282;51.440;6.938;2023-04-03T14:25:40;2.28;;;0.80;;
12435;SDS011;6282;51.440;6.938;2023-04-03T14:28:12;0.80;;;0.80;;
12435;SDS011;6282;51.440;6.938;2023-04-03T14:30:42;2.08;;;1.08;;
12435;SDS011;6282;51.440;6.938;2023-04-03T14:33:10;2.88;;;0.95;;
12435;SDS011;6282;51.440;6.938;2023-04-03T14:35:43;2.27;;;1.10;;
12435;SDS011;6282;51.440;6.938;2023-04-03T14:38:20;2.23;;;0.93;;
12435;SDS011;6282;51.440;6.938;2023-04-03T14:40:50;1.40;;;1.00;;
12435;SDS011;6282;51.440;6.938;2023-04-03T14:43:17;4.35;;;1.38;;
12435;SDS011;6282;51.440;6.938;2023-04-03T14:45:45;1.33;;;0.95;;
12435;SDS011;6282;51.440;6.938;2023-04-03T14:48:12;1.83;;;1.00;;
12435;SDS011;6282;51.440;6.938;2023-04-03T14:50:45;2.25;;;0.93;;
12435;SDS011;6282;51.440;6.938;2023-04-03T14:53:13;2.58;;;1.20;;
12435;SDS011;6282;51.440;6.938;2023-04-03T14:55:41;2.92;;;0.73;;
12435;SDS011;6282;51.440;6.938;2023-04-03T14:58:12;1.60;;;0.90;;
12435;SDS011;6282;51.440;6.938;2023-04-03T15:00:40;2.65;;;1.15;;
12435;SDS011;6282;51.440;6.938;2023-04-03T15:03:09;1.20;;;1.02;;
12435;SDS011;6282;51.440;6.938;2023-04-03T15:05:42;1.60;;;1.10;;
12435;SDS011;6282;51.440;6.938;2023-04-03T15:08:13;1.35;;;0.85;;
12435;SDS011;6282;51.440;6.938;2023-04-03T15:10:45;0.60;;;0.60;;
12435;SDS011;6282;51.440;6.938;2023-04-03T15:13:12;3.78;;;0.90;;
12435;SDS011;6282;51.440;6.938;2023-04-03T15:15:39;1.08;;;0.95;;
12435;SDS011;6282;51.440;6.938;2023-04-03T15:18:07;1.83;;;0.90;;
12435;SDS011;6282;51.440;6.938;2023-04-03T15:20:40;1.23;;;1.10;;
12435;SDS011;6282;51.440;6.938;2023-04-03T15:23:08;1.33;;;0.77;;
12435;SDS011;6282;51.440;6.938;2023-04-03T15:25:37;2.83;;;1.00;;
12435;SDS011;6282;51.440;6.938;2023-04-03T15:28:05;1.83;;;0.93;;
12435;SDS011;6282;51.440;6.938;2023-04-03T15:30:32;1.75;;;0.90;;
12435;SDS011;6282;51.440;6.938;2023-04-03T15:33:02;1.38;;;0.93;;
12435;SDS011;6282;51.440;6.938;2023-04-03T15:35:29;0.97;;;0.83;;
12435;SDS011;6282;51.440;6.938;2023-04-03T15:37:57;1.53;;;0.80;;
12435;SDS011;6282;51.440;6.938;2023-04-03T15:40:24;2.30;;;1.00;;
12435;SDS011;6282;51.440;6.938;2023-04-03T15:42:51;2.37;;;1.10;;